Time;durP1;ratioP1;P1;durP2;ratioP2;P2;SDS_P1;SDS_P2;PMS_P1;PMS_P2;Temp;Humidity;BMP_temperature;BMP_pressure;BME280_temperature;BME280_humidity;BME280_pressure;Samples;Min_cycle;Max_cycle;Signal;HPM_P1;HPM_P2
2021/08/04 00:00:21;;;;;;;17.27;8.98;;;;;;;16.11;69.41;99572.44;10361173;28;20086;-61
2021/08/04 00:05:22;;;;;;;12.13;7.15;;;;;;;16.10;68.99;99577.84;10344647;28;20056;-62
2021/08/04 00:10:24;;;;;;;17.95;8.35;;;;;;;16.20;68.97;99582.16;10360637;28;20125;-62
2021/08/04 00:15:26;;;;;;;18.58;10.35;;;;;;;16.14;68.39;99584.53;10336306;28;20057;-62
2021/08/04 00:20:28;;;;;;;15.35;8.35;;;;;;;15.98;69.18;99585.00;10329610;28;20446;-62
2021/08/04 00:25:29;;;;;;;12.70;8.15;;;;;;;16.13;69.15;99588.13;10350055;28;20506;-61
2021/08/04 00:30:31;;;;;;;29.90;11.77;;;;;;;16.14;69.28;99587.97;10325200;28;20050;-61
2021/08/04 00:35:33;;;;;;;20.10;9.93;;;;;;;16.13;68.97;99581.03;10328047;28;20053;-61
2021/08/04 00:40:34;;;;;;;18.70;11.90;;;;;;;16.22;68.77;99580.22;10331041;28;20046;-61
2021/08/04 00:45:36;;;;;;;18.13;11.00;;;;;;;16.23;68.65;99575.78;10333602;28;20056;-62
2021/08/04 00:50:38;;;;;;;15.95;10.10;;;;;;;16.22;68.73;99585.50;10364565;28;20042;-61
2021/08/04 00:55:40;;;;;;;15.60;11.52;;;;;;;16.11;68.83;99590.91;10341034;28;20125;-61
2021/08/04 01:00:48;;;;;;;22.05;13.60;;;;;;;16.07;68.53;99592.13;10362839;28;20122;-61
2021/08/04 01:05:56;;;;;;;20.73;15.00;;;;;;;15.93;68.69;99584.59;10334611;28;20056;-61
2021/08/04 01:11:03;;;;;;;21.42;17.58;;;;;;;15.87;68.54;99584.28;10364255;28;20586;-62
2021/08/04 01:16:17;;;;;;;23.67;18.95;;;;;;;15.87;68.55;99585.13;10381061;28;20499;-62
2021/08/04 01:21:39;;;;;;;31.98;23.48;;;;;;;15.72;68.22;99586.44;10347651;28;20057;-61
2021/08/04 01:26:42;;;;;;;46.58;26.80;;;;;;;15.71;68.38;99583.94;10327989;28;20054;-62
2021/08/04 01:31:48;;;;;;;39.08;25.75;;;;;;;15.55;68.60;99583.59;10347305;28;20582;-60
2021/08/04 01:36:50;;;;;;;33.60;23.92;;;;;;;15.45;68.37;99583.50;10352992;28;20090;-61
2021/08/04 01:41:55;;;;;;;39.83;24.25;;;;;;;15.43;68.79;99581.00;10336672;28;20074;-61
2021/08/04 01:46:58;;;;;;;27.38;20.55;;;;;;;15.46;68.64;99577.28;10326497;28;20054;-61
2021/08/04 01:52:00;;;;;;;49.25;23.70;;;;;;;15.44;68.88;99579.22;10350265;28;20387;-61
2021/08/04 01:57:02;;;;;;;45.55;22.98;;;;;;;15.48;68.99;99575.34;10363029;28;20129;-61
2021/08/04 02:02:15;;;;;;;28.58;20.45;;;;;;;15.51;69.29;99576.91;10342348;28;20066;-62
2021/08/04 02:07:42;;;;;;;38.25;25.27;;;;;;;15.56;69.26;99574.72;10371728;28;20073;-61
2021/08/04 02:12:50;;;;;;;43.30;26.45;;;;;;;15.56;69.49;99577.34;10339241;28;20553;-61
2021/08/04 02:18:01;;;;;;;35.63;26.55;;;;;;;15.63;69.09;99567.97;10339404;28;20042;-61
2021/08/04 02:23:18;;;;;;;77.72;34.70;;;;;;;15.37;69.04;99559.59;10342084;28;20497;-61
2021/08/04 02:28:23;;;;;;;48.35;28.23;;;;;;;15.37;69.17;99572.78;10358313;28;20064;-61
2021/08/04 02:33:25;;;;;;;60.97;31.42;;;;;;;15.32;69.16;99564.44;10354832;28;20522;-61
2021/08/04 02:38:29;;;;;;;108.20;39.10;;;;;;;15.04;69.50;99571.19;10343691;28;20497;-61
2021/08/04 02:43:32;;;;;;;133.48;41.00;;;;;;;14.99;69.46;99564.63;10342307;28;20505;-62
2021/08/04 02:48:34;;;;;;;144.07;43.33;;;;;;;14.85;69.40;99568.44;10332817;28;20082;-61
2021/08/04 02:53:36;;;;;;;83.50;36.63;;;;;;;14.81;69.66;99576.69;10366223;28;20046;-61
2021/08/04 02:58:38;;;;;;;96.80;37.45;;;;;;;14.76;69.60;99571.00;10370585;28;20049;-61
2021/08/04 03:03:40;;;;;;;112.53;40.15;;;;;;;14.71;69.67;99573.16;10345247;28;20129;-61
2021/08/04 03:08:41;;;;;;;40.95;24.98;;;;;;;14.73;69.89;99579.97;10364021;28;20100;-61
2021/08/04 03:13:43;;;;;;;70.63;33.97;;;;;;;14.76;69.70;99586.78;10349333;28;20046;-61
2021/08/04 03:18:45;;;;;;;63.65;32.90;;;;;;;14.79;69.93;99583.91;10362415;28;20046;-62
2021/08/04 03:23:46;;;;;;;91.00;38.85;;;;;;;14.76;70.06;99584.16;10326865;28;20129;-61
2021/08/04 03:28:48;;;;;;;80.55;36.33;;;;;;;14.69;70.45;99589.09;10323217;28;20149;-61
2021/08/04 03:33:50;;;;;;;93.85;36.03;;;;;;;14.74;70.37;99600.06;10349195;28;20052;-61
2021/08/04 03:38:51;;;;;;;88.63;35.55;;;;;;;14.86;70.00;99596.41;10350796;28;20133;-61
2021/08/04 03:43:53;;;;;;;74.75;33.45;;;;;;;14.96;69.98;99588.59;10334554;28;20509;-61
2021/08/04 03:48:55;;;;;;;45.08;28.23;;;;;;;14.95;70.05;99589.56;10350333;28;20401;-61
2021/08/04 03:53:56;;;;;;;49.05;28.52;;;;;;;15.08;69.80;99588.41;10350492;28;20051;-61
2021/08/04 03:58:58;;;;;;;49.75;27.67;;;;;;;15.08;70.06;99584.94;10362808;28;20092;-62
2021/08/04 04:04:00;;;;;;;53.47;29.00;;;;;;;15.13;69.94;99595.91;10352230;28;20077;-61
2021/08/04 04:09:02;;;;;;;47.75;29.60;;;;;;;15.22;69.56;99593.38;10341002;28;20134;-62
2021/08/04 04:14:04;;;;;;;64.68;32.20;;;;;;;15.16;69.30;99593.03;10332132;28;20492;-61
2021/08/04 04:19:07;;;;;;;48.50;27.90;;;;;;;15.15;69.44;99592.19;10334097;28;20112;-61
2021/08/04 04:24:10;;;;;;;83.40;36.25;;;;;;;15.08;69.02;99591.03;10358813;28;20330;-61
2021/08/04 04:29:12;;;;;;;75.68;34.47;;;;;;;14.95;69.31;99597.47;10367606;28;20489;-61
2021/08/04 04:34:13;;;;;;;52.08;29.25;;;;;;;14.91;69.43;99604.78;10339255;28;20159;-61
2021/08/04 04:39:16;;;;;;;63.40;31.30;;;;;;;14.91;69.02;99607.41;10357488;28;20104;-61
2021/08/04 04:44:18;;;;;;;59.83;31.70;;;;;;;14.90;69.10;99607.56;10357465;28;20075;-61
2021/08/04 04:49:20;;;;;;;112.88;42.97;;;;;;;14.86;69.02;99617.47;10342267;28;20141;-61
2021/08/04 04:54:21;;;;;;;82.53;37.22;;;;;;;14.92;69.17;99616.16;10366820;28;20681;-61
2021/08/04 04:59:23;;;;;;;94.15;37.47;;;;;;;15.00;68.86;99611.91;10366348;28;20132;-61
2021/08/04 05:04:25;;;;;;;50.17;28.58;;;;;;;15.07;68.58;99610.44;10347577;28;20582;-61
2021/08/04 05:09:26;;;;;;;89.43;34.42;;;;;;;15.10;68.62;99615.44;10366086;28;20128;-61
2021/08/04 05:14:28;;;;;;;51.97;29.25;;;;;;;15.08;68.47;99612.09;10347404;28;20056;-61
2021/08/04 05:19:30;;;;;;;119.38;39.30;;;;;;;14.93;69.03;99612.56;10363467;28;20053;-61
2021/08/04 05:24:32;;;;;;;62.13;30.10;;;;;;;14.96;69.22;99605.22;10358547;28;20045;-61
2021/08/04 05:29:33;;;;;;;72.32;33.10;;;;;;;15.07;68.82;99605.19;10363893;28;20137;-61
2021/08/04 05:34:35;;;;;;;62.35;31.48;;;;;;;15.14;68.81;99616.03;10345078;28;20046;-61
2021/08/04 05:39:37;;;;;;;42.95;26.83;;;;;;;15.30;68.75;99611.16;10348582;28;20133;-61
2021/08/04 05:44:38;;;;;;;41.58;28.02;;;;;;;15.47;68.09;99626.38;10365757;28;20137;-61
2021/08/04 05:49:40;;;;;;;59.75;31.45;;;;;;;15.52;67.42;99633.91;10358149;28;20077;-61
2021/08/04 05:54:42;;;;;;;57.80;31.48;;;;;;;15.45;67.70;99630.13;10342226;28;20121;-61
2021/08/04 05:59:44;;;;;;;91.95;34.38;;;;;;;15.64;67.27;99628.44;10338026;28;20058;-61
2021/08/04 06:04:45;;;;;;;58.10;32.30;;;;;;;15.82;67.08;99628.66;10338090;28;20546;-61
2021/08/04 06:09:47;;;;;;;40.88;27.42;;;;;;;15.93;66.42;99632.06;10334426;28;20048;-61
2021/08/04 06:14:49;;;;;;;51.13;30.40;;;;;;;16.19;66.02;99633.28;10354213;28;20050;-61
2021/08/04 06:19:51;;;;;;;49.03;31.40;;;;;;;16.46;65.01;99637.97;10358352;28;20501;-62
2021/08/04 06:24:52;;;;;;;41.50;28.45;;;;;;;16.60;64.79;99640.22;10332240;28;20486;-61
2021/08/04 06:29:54;;;;;;;46.92;31.40;;;;;;;16.67;64.82;99643.94;10325236;28;20133;-61
2021/08/04 06:34:56;;;;;;;56.45;32.00;;;;;;;16.47;64.56;99636.97;10337751;28;20048;-61
2021/08/04 06:39:58;;;;;;;47.95;30.15;;;;;;;16.88;63.67;99641.19;10357233;28;20510;-61
2021/08/04 06:44:59;;;;;;;31.75;25.65;;;;;;;17.88;61.22;99643.31;10345881;28;20088;-62
2021/08/04 06:50:02;;;;;;;29.42;23.40;;;;;;;18.50;59.57;99643.44;10336302;28;20050;-62
2021/08/04 06:55:04;;;;;;;27.50;23.63;;;;;;;18.88;58.68;99645.00;10335719;28;20129;-62
2021/08/04 07:00:06;;;;;;;31.92;23.83;;;;;;;18.88;58.29;99650.31;10330990;28;20909;-62
2021/08/04 07:05:08;;;;;;;31.00;24.70;;;;;;;18.84;58.95;99646.28;10338498;28;20056;-62
2021/08/04 07:10:11;;;;;;;30.42;25.55;;;;;;;19.00;58.58;99646.44;10354849;28;20155;-61
2021/08/04 07:15:13;;;;;;;28.48;24.85;;;;;;;19.09;57.88;99655.34;10333286;28;20096;-61
2021/08/04 07:20:20;;;;;;;30.85;24.55;;;;;;;18.96;57.75;99657.50;10333215;28;20042;-61
2021/08/04 07:25:21;;;;;;;27.55;23.98;;;;;;;18.37;57.36;99665.97;10344715;28;20054;-61
2021/08/04 07:30:25;;;;;;;31.58;25.38;;;;;;;18.07;58.74;99669.69;10333585;28;20074;-61
2021/08/04 07:35:26;;;;;;;30.77;25.52;;;;;;;17.90;59.52;99666.97;10330471;28;20124;-61
2021/08/04 07:40:28;;;;;;;35.10;26.88;;;;;;;17.73;60.35;99661.44;10361408;28;20453;-61
2021/08/04 07:45:30;;;;;;;36.55;28.13;;;;;;;17.94;59.90;99663.03;10344262;28;20092;-61
2021/08/04 07:50:33;;;;;;;32.53;27.10;;;;;;;18.30;58.66;99655.13;10354988;28;20077;-60
2021/08/04 07:55:34;;;;;;;32.72;27.48;;;;;;;18.50;58.40;99655.88;10361253;28;20053;-61
2021/08/04 08:00:36;;;;;;;33.55;26.67;;;;;;;18.78;57.55;99660.13;10324069;28;20077;-61
2021/08/04 08:05:39;;;;;;;28.77;24.73;;;;;;;19.67;55.68;99652.94;10352197;28;20076;-61
2021/08/04 08:10:41;;;;;;;27.13;23.38;;;;;;;21.36;51.71;99653.56;10342660;28;20136;-61
2021/08/04 08:15:44;;;;;;;27.17;22.65;;;;;;;22.70;48.05;99649.84;10325821;28;20085;-61
2021/08/04 08:20:46;;;;;;;26.80;22.27;;;;;;;23.51;44.86;99651.97;10362112;28;20073;-61
2021/08/04 08:25:48;;;;;;;26.48;22.02;;;;;;;23.77;42.86;99644.38;10358847;28;20498;-61
2021/08/04 08:30:50;;;;;;;27.90;23.58;;;;;;;21.85;46.54;99647.19;10334460;28;20050;-61
2021/08/04 08:35:51;;;;;;;27.73;23.02;;;;;;;21.15;47.30;99653.22;10321495;28;20058;-61
2021/08/04 08:40:54;;;;;;;23.70;21.30;;;;;;;21.45;46.98;99640.13;10345368;28;20108;-61
2021/08/04 08:45:56;;;;;;;28.38;21.45;;;;;;;22.34;46.43;99638.06;10361717;28;20137;-61
2021/08/04 08:50:58;;;;;;;22.05;19.63;;;;;;;22.46;45.69;99633.16;10346530;28;20057;-61
2021/08/04 08:56:00;;;;;;;24.67;21.15;;;;;;;22.76;45.03;99623.53;10340602;28;20042;-61
2021/08/04 09:01:02;;;;;;;22.42;19.23;;;;;;;22.90;44.90;99620.09;10368101;28;20050;-61
2021/08/04 09:06:05;;;;;;;21.17;18.90;;;;;;;22.33;45.15;99619.59;10369115;28;20100;-62
2021/08/04 09:11:15;;;;;;;20.65;16.25;;;;;;;23.02;44.66;99606.19;10347592;28;20062;-61
2021/08/04 09:16:19;;;;;;;17.67;14.77;;;;;;;24.09;43.12;99600.47;10328241;28;20129;-61
2021/08/04 09:21:22;;;;;;;19.75;17.67;;;;;;;24.28;40.71;99592.72;10356370;28;20088;-61
2021/08/04 09:26:27;;;;;;;20.10;16.40;;;;;;;23.52;42.24;99602.06;10368265;28;20135;-61
2021/08/04 09:31:41;;;;;;;18.45;14.60;;;;;;;23.98;41.73;99588.38;10366323;28;20502;-61
2021/08/04 09:36:48;;;;;;;15.27;12.48;;;;;;;24.06;42.30;99585.59;10343896;28;20470;-61
2021/08/04 09:41:50;;;;;;;17.50;14.77;;;;;;;24.33;41.12;99586.78;10327043;28;20125;-61
2021/08/04 09:47:13;;;;;;;19.70;17.70;;;;;;;23.87;42.72;99588.84;10355767;28;20063;-62
2021/08/04 09:52:15;;;;;;;18.52;16.58;;;;;;;24.19;41.59;99580.47;10367468;28;20409;-62
2021/08/04 09:57:16;;;;;;;16.58;14.88;;;;;;;24.41;41.42;99577.84;10366867;28;20050;-62
2021/08/04 10:02:30;;;;;;;18.50;14.60;;;;;;;23.67;41.65;99579.75;10339443;28;20043;-61
2021/08/04 10:07:32;;;;;;;16.13;11.48;;;;;;;23.38;43.39;99579.66;10325890;28;20070;-61
2021/08/04 10:12:34;;;;;;;11.65;9.68;;;;;;;23.23;43.52;99576.13;10326323;28;20085;-61
2021/08/04 10:17:35;;;;;;;14.45;9.85;;;;;;;22.86;43.48;99568.13;10327019;28;20130;-62
2021/08/04 10:22:38;;;;;;;13.10;9.77;;;;;;;23.73;40.81;99576.31;10325673;28;20134;-62
2021/08/04 10:27:40;;;;;;;14.20;11.27;;;;;;;24.08;38.98;99561.41;10325077;28;20407;-62
2021/08/04 10:32:43;;;;;;;12.45;10.20;;;;;;;24.76;38.00;99552.91;10326448;28;20133;-61
2021/08/04 10:37:47;;;;;;;11.52;10.20;;;;;;;23.88;38.82;99562.97;10325539;28;20066;-62
2021/08/04 10:42:49;;;;;;;11.27;10.18;;;;;;;23.53;39.15;99556.53;10324833;28;20050;-62
2021/08/04 10:47:52;;;;;;;10.75;8.52;;;;;;;23.99;39.21;99552.63;10327958;28;20056;-62
2021/08/04 10:52:56;;;;;;;9.90;8.30;;;;;;;24.03;38.71;99542.41;10378156;28;20125;-61
2021/08/04 10:58:04;;;;;;;11.60;10.27;;;;;;;23.43;39.46;99543.44;10365357;28;20078;-62
2021/08/04 11:03:41;;;;;;;12.40;10.98;;;;;;;22.75;41.36;99537.38;10365310;28;20129;-61
2021/08/04 11:08:47;;;;;;;14.73;10.02;;;;;;;23.02;42.25;99525.31;10336429;28;20046;-61
2021/08/04 11:13:53;;;;;;;10.15;8.63;;;;;;;22.99;40.53;99531.84;10324198;28;20093;-61
2021/08/04 11:19:02;;;;;;;8.38;6.88;;;;;;;23.10;40.53;99533.25;10323908;28;20046;-61
2021/08/04 11:24:06;;;;;;;7.60;6.45;;;;;;;23.17;39.83;99535.00;10323352;28;20125;-62
2021/08/04 11:29:09;;;;;;;11.90;7.50;;;;;;;23.07;40.92;99534.44;10334573;28;20061;-61
2021/08/04 11:34:29;;;;;;;7.88;7.05;;;;;;;23.10;41.81;99534.09;10336251;28;20128;-62
2021/08/04 11:39:31;;;;;;;;;;;;;;;22.81;41.27;99527.84;10364146;28;20074;-61
2021/08/04 11:44:38;;;;;;;11.52;7.45;;;;;;;22.76;40.44;99519.56;10363810;28;19933;-61
2021/08/04 11:49:41;;;;;;;7.10;5.90;;;;;;;23.05;40.24;99514.28;10361963;28;20141;-61
2021/08/04 11:54:57;;;;;;;7.80;6.50;;;;;;;23.40;38.85;99500.25;10347497;28;20073;-61
2021/08/04 12:00:04;;;;;;;6.85;5.90;;;;;;;23.42;39.64;99498.25;10363166;28;20558;-61
2021/08/04 12:05:08;;;;;;;7.05;5.70;;;;;;;23.22;39.10;99489.09;10378533;28;20049;-61
2021/08/04 12:10:15;;;;;;;5.88;4.93;;;;;;;23.70;38.38;99482.38;10377742;28;20141;-61
2021/08/04 12:15:25;;;;;;;6.35;5.55;;;;;;;23.89;37.88;99484.50;10361727;28;20562;-61
2021/08/04 12:20:29;;;;;;;5.85;4.93;;;;;;;23.40;38.37;99484.22;10362043;28;20129;-61
2021/08/04 12:25:33;;;;;;;7.00;5.10;;;;;;;23.69;37.62;99476.25;10363025;28;20073;-61
2021/08/04 12:30:39;;;;;;;5.18;4.40;;;;;;;23.97;37.42;99474.53;10367433;28;20061;-61
2021/08/04 12:41:41;;;;;;;7.03;5.63;;;;;;;23.74;37.30;99486.34;10355344;28;20193;-61
2021/08/04 12:46:44;;;;;;;6.95;5.10;;;;;;;23.45;37.93;99492.56;10370128;28;20085;-61
2021/08/04 12:52:06;;;;;;;6.75;5.07;;;;;;;23.54;37.80;99482.59;10369549;28;20442;-61
2021/08/04 12:57:25;;;;;;;5.22;4.60;;;;;;;23.46;37.42;99480.84;10369845;28;20136;-61
2021/08/04 13:02:38;;;;;;;5.47;4.45;;;;;;;22.97;38.53;99477.00;10369534;28;20506;-61
2021/08/04 13:07:42;;;;;;;5.50;4.10;;;;;;;23.11;41.94;99469.03;10335583;28;20141;-61
2021/08/04 13:12:56;;;;;;;5.72;4.50;;;;;;;23.54;36.35;99466.56;10367468;28;20549;-61
2021/08/04 13:17:59;;;;;;;6.45;4.20;;;;;;;23.57;38.52;99464.38;10368306;28;20081;-62
2021/08/04 13:23:08;;;;;;;5.70;3.95;;;;;;;23.71;38.67;99478.72;10367383;28;20140;-61
2021/08/04 13:28:18;;;;;;;5.37;3.67;;;;;;;23.66;40.62;99476.59;10367173;28;20060;-61
2021/08/04 13:33:28;;;;;;;6.18;5.35;;;;;;;23.16;41.83;99484.50;10366777;28;20057;-61
2021/08/04 13:38:30;;;;;;;6.18;4.80;;;;;;;22.81;42.63;99486.00;10354375;28;20514;-61
2021/08/04 13:43:32;;;;;;;6.93;4.65;;;;;;;22.76;43.49;99493.69;10380632;28;20054;-61
2021/08/04 13:48:35;;;;;;;7.70;5.05;;;;;;;22.94;42.98;99480.06;10366737;28;20580;-61
2021/08/04 13:53:36;;;;;;;6.97;4.80;;;;;;;22.84;43.56;99482.16;10365697;28;20125;-61
2021/08/04 13:58:38;;;;;;;7.88;4.82;;;;;;;22.97;43.19;99466.34;10361463;28;20056;-61
2021/08/04 14:03:40;;;;;;;7.30;4.97;;;;;;;22.99;42.83;99475.00;10365238;28;20125;-61
2021/08/04 14:08:41;;;;;;;7.68;5.32;;;;;;;22.95;43.37;99468.38;10365013;28;20457;-61
2021/08/04 14:13:43;;;;;;;10.55;5.10;;;;;;;23.03;42.58;99462.94;10365400;28;20128;-61
2021/08/04 14:18:45;;;;;;;5.93;4.22;;;;;;;22.97;43.00;99458.34;10364026;28;20140;-61
2021/08/04 14:23:46;;;;;;;5.88;4.20;;;;;;;22.96;43.32;99456.72;10365000;28;20054;-61
2021/08/04 14:28:48;;;;;;;5.10;4.10;;;;;;;23.25;42.28;99459.38;10363272;28;20060;-61
2021/08/04 14:33:50;;;;;;;6.45;4.22;;;;;;;23.05;42.48;99459.09;10365064;28;20081;-61
2021/08/04 14:38:52;;;;;;;5.68;4.18;;;;;;;23.03;42.66;99463.78;10364720;28;20594;-61
2021/08/04 14:43:53;;;;;;;6.88;4.30;;;;;;;23.43;42.94;99465.22;10364237;28;20134;-61
2021/08/04 14:48:55;;;;;;;10.93;4.60;;;;;;;23.95;40.98;99449.00;10360450;28;20554;-61
2021/08/04 14:53:58;;;;;;;6.00;4.10;;;;;;;24.24;41.36;99452.47;10337097;28;20076;-61
2021/08/04 14:59:00;;;;;;;8.20;3.90;;;;;;;24.22;38.99;99440.31;10362889;28;20513;-61
2021/08/04 15:04:05;;;;;;;5.57;4.35;;;;;;;24.28;39.39;99443.03;10378772;28;20064;-61
2021/08/04 15:09:07;;;;;;;5.70;4.35;;;;;;;24.35;39.95;99445.75;10380264;28;20057;-61
2021/08/04 15:14:09;;;;;;;6.25;4.63;;;;;;;24.29;39.50;99447.34;10380440;28;20132;-61
2021/08/04 15:19:11;;;;;;;6.00;4.40;;;;;;;24.18;40.72;99439.84;10377474;28;20100;-61
2021/08/04 15:24:13;;;;;;;5.82;4.38;;;;;;;23.94;40.65;99436.69;10378291;28;20451;-61
2021/08/04 15:29:14;;;;;;;4.85;4.20;;;;;;;23.86;41.26;99434.94;10366299;28;20417;-61
2021/08/04 15:34:17;;;;;;;5.07;4.35;;;;;;;24.05;40.82;99438.84;10392474;28;20052;-62
2021/08/04 15:39:19;;;;;;;7.25;4.00;;;;;;;23.97;40.72;99436.28;10378634;28;20049;-61
2021/08/04 15:44:21;;;;;;;4.95;4.22;;;;;;;23.79;40.35;99436.72;10403503;28;20046;-61
2021/08/04 15:49:23;;;;;;;5.85;4.40;;;;;;;23.72;39.75;99432.31;10385289;28;20062;-61
2021/08/04 15:54:24;;;;;;;4.63;3.97;;;;;;;23.76;40.52;99430.94;10374690;28;20130;-61
2021/08/04 15:59:26;;;;;;;5.25;4.20;;;;;;;23.84;40.29;99428.16;10361783;28;20121;-61
2021/08/04 16:04:28;;;;;;;6.65;4.10;;;;;;;23.70;40.47;99418.31;10349092;28;20406;-61
2021/08/04 16:09:30;;;;;;;4.63;4.13;;;;;;;23.85;41.13;99411.94;10361839;28;20140;-61
2021/08/04 16:14:31;;;;;;;5.40;4.28;;;;;;;23.72;40.61;99410.94;10405851;28;20132;-61
2021/08/04 16:19:37;;;;;;;5.95;4.22;;;;;;;23.32;40.15;99399.78;10411351;28;20075;-61
2021/08/04 16:24:39;;;;;;;5.28;4.00;;;;;;;23.03;42.02;99398.94;10411731;28;21072;-61
2021/08/04 16:29:41;;;;;;;4.88;4.03;;;;;;;22.83;43.19;99397.81;10411368;28;20401;-61
2021/08/04 16:34:42;;;;;;;4.95;4.13;;;;;;;22.61;43.52;99397.69;10411242;28;20095;-61
2021/08/04 16:39:44;;;;;;;5.88;4.10;;;;;;;22.45;44.44;99389.81;10385984;28;20084;-61
2021/08/04 16:44:48;;;;;;;5.28;3.67;;;;;;;22.34;45.32;99392.94;10353819;28;20134;-61
2021/08/04 16:49:50;;;;;;;5.75;4.30;;;;;;;22.51;44.96;99391.78;10329728;28;20129;-61
2021/08/04 16:54:52;;;;;;;6.10;4.13;;;;;;;22.56;44.07;99391.22;10336511;28;20046;-61
2021/08/04 16:59:59;;;;;;;5.25;3.90;;;;;;;22.59;44.77;99385.56;10384688;28;20486;-61
2021/08/04 17:05:01;;;;;;;5.55;4.32;;;;;;;22.78;44.45;99386.91;10370214;28;20109;-61
2021/08/04 17:10:03;;;;;;;8.30;4.13;;;;;;;22.95;43.99;99373.19;10369288;28;20453;-62
2021/08/04 17:15:06;;;;;;;11.20;4.07;;;;;;;23.12;43.48;99371.16;10367057;28;20892;-61
2021/08/04 17:20:14;;;;;;;5.07;3.75;;;;;;;23.11;43.58;99370.34;10367441;28;20515;-61
2021/08/04 17:25:16;;;;;;;5.25;4.25;;;;;;;23.06;43.48;99372.75;10369136;28;20463;-61
2021/08/04 17:30:19;;;;;;;4.80;4.07;;;;;;;22.93;43.29;99374.38;10368530;28;20144;-61
2021/08/04 17:35:21;;;;;;;4.90;4.03;;;;;;;22.81;42.99;99390.03;10368585;28;20129;-61
2021/08/04 17:40:22;;;;;;;6.03;4.07;;;;;;;22.67;43.42;99383.63;10368264;28;20137;-61
2021/08/04 17:45:24;;;;;;;5.72;4.10;;;;;;;22.40;43.65;99386.06;10365681;28;20189;-61
2021/08/04 17:50:26;;;;;;;5.68;4.10;;;;;;;22.17;45.19;99386.06;10341831;28;20177;-61
2021/08/04 17:55:28;;;;;;;4.10;3.50;;;;;;;21.80;44.13;99389.47;10338648;28;20081;-61
2021/08/04 18:00:30;;;;;;;6.90;3.65;;;;;;;21.51;46.03;99394.66;10364541;28;20141;-61
2021/08/04 18:05:32;;;;;;;6.78;3.72;;;;;;;21.33;46.92;99402.03;10326083;28;20617;-61
2021/08/04 18:10:34;;;;;;;4.82;3.47;;;;;;;21.09;47.51;99402.91;10326472;28;20450;-61
2021/08/04 18:15:35;;;;;;;6.03;3.30;;;;;;;20.98;47.92;99413.09;10326311;28;20450;-61
2021/08/04 18:20:38;;;;;;;4.30;3.40;;;;;;;20.92;48.62;99408.47;10324686;28;20417;-61
2021/08/04 18:25:40;;;;;;;4.93;3.85;;;;;;;20.79;49.18;99408.13;10325851;28;20567;-61
2021/08/04 18:30:43;;;;;;;5.43;4.15;;;;;;;20.52;50.17;99411.16;10326443;28;20060;-61
2021/08/04 18:35:45;;;;;;;6.15;5.10;;;;;;;20.38;50.92;99417.16;10325432;28;20081;-61
2021/08/04 18:40:47;;;;;;;7.18;5.30;;;;;;;20.28;51.84;99417.28;10339754;28;20078;-61
2021/08/04 18:45:48;;;;;;;7.55;4.95;;;;;;;20.18;52.29;99416.63;10365560;28;20125;-61
2021/08/04 18:50:50;;;;;;;8.15;5.03;;;;;;;20.08;52.99;99423.91;10365856;28;20096;-61
2021/08/04 18:55:52;;;;;;;7.07;4.53;;;;;;;19.90;53.65;99432.03;10365455;28;20133;-61
2021/08/04 19:00:54;;;;;;;9.75;4.60;;;;;;;19.78;53.47;99435.09;10364906;28;20530;-61
2021/08/04 19:05:56;;;;;;;6.65;4.10;;;;;;;19.54;53.48;99440.34;10365087;28;20479;-61
2021/08/04 19:11:02;;;;;;;5.32;4.40;;;;;;;19.57;54.17;99432.03;10364190;28;20107;-61
2021/08/04 19:16:08;;;;;;;5.53;4.25;;;;;;;19.42;53.96;99437.97;10364585;28;20108;-61
2021/08/04 19:21:10;;;;;;;8.23;3.88;;;;;;;19.19;53.54;99436.88;10364528;28;20053;-61
2021/08/04 19:26:12;;;;;;;6.07;4.10;;;;;;;19.20;54.50;99443.00;10364472;28;20124;-61
2021/08/04 19:31:13;;;;;;;7.32;4.40;;;;;;;19.26;54.54;99443.19;10353078;28;20464;-61
2021/08/04 19:36:15;;;;;;;5.50;4.30;;;;;;;19.21;54.94;99434.06;10322105;28;20042;-61
2021/08/04 19:41:17;;;;;;;8.07;4.88;;;;;;;19.12;55.62;99441.13;10322983;28;20046;-61
2021/08/04 19:46:19;;;;;;;8.48;4.50;;;;;;;19.09;55.87;99451.22;10337262;28;20049;-61
2021/08/04 19:51:20;;;;;;;5.85;4.63;;;;;;;19.07;56.31;99454.06;10377568;28;20053;-61
2021/08/04 19:56:22;;;;;;;6.97;4.53;;;;;;;18.98;56.76;99454.09;10362456;28;20129;-61
2021/08/04 20:01:24;;;;;;;6.68;5.00;;;;;;;18.98;56.78;99452.28;10350628;28;20073;-61
2021/08/04 20:06:26;;;;;;;6.55;5.35;;;;;;;18.90;57.62;99444.28;10321660;28;20046;-61
2021/08/04 20:11:27;;;;;;;12.00;5.28;;;;;;;18.81;57.80;99450.50;10377591;28;20049;-60
2021/08/04 20:16:29;;;;;;;9.73;5.60;;;;;;;18.76;58.04;99444.88;10359214;28;20050;-59
2021/08/04 20:21:31;;;;;;;7.88;4.70;;;;;;;18.82;57.65;99449.53;10350086;28;20850;-61
2021/08/04 20:26:34;;;;;;;9.98;4.95;;;;;;;18.79;57.59;99449.84;10362552;28;20573;-60
2021/08/04 20:31:36;;;;;;;6.90;4.55;;;;;;;18.78;57.74;99450.84;10335419;28;20052;-61
2021/08/04 20:36:38;;;;;;;8.80;4.70;;;;;;;18.69;58.01;99449.09;10347440;28;20511;-61
2021/08/04 20:41:40;;;;;;;7.40;4.47;;;;;;;18.52;58.33;99439.41;10349288;28;20137;-61
2021/08/04 20:46:42;;;;;;;8.55;4.40;;;;;;;18.43;58.06;99448.25;10347295;28;20125;-61
2021/08/04 20:51:43;;;;;;;5.20;4.20;;;;;;;18.44;58.32;99439.34;10364408;28;20088;-61
2021/08/04 20:56:48;;;;;;;9.27;4.70;;;;;;;18.43;58.57;99454.38;10353921;28;20133;-60
2021/08/04 21:01:57;;;;;;;8.35;4.53;;;;;;;18.23;59.01;99447.59;10369564;28;20048;-60
2021/08/04 21:06:59;;;;;;;5.95;4.97;;;;;;;17.99;59.18;99446.47;10368861;28;20049;-61
2021/08/04 21:12:01;;;;;;;6.78;4.45;;;;;;;17.60;59.82;99454.66;10369405;28;20186;-60
2021/08/04 21:17:03;;;;;;;7.45;4.93;;;;;;;17.58;60.31;99455.78;10384082;28;20057;-60
2021/08/04 21:22:05;;;;;;;8.18;4.85;;;;;;;17.69;60.37;99464.34;10330010;28;20046;-61
2021/08/04 21:27:06;;;;;;;8.48;5.30;;;;;;;17.84;60.13;99460.22;10357530;28;20056;-60
2021/08/04 21:32:08;;;;;;;9.38;5.28;;;;;;;17.79;60.33;99462.47;10382118;28;20552;-60
2021/08/04 21:37:10;;;;;;;6.70;5.70;;;;;;;17.69;60.38;99459.06;10357764;28;20104;-60
2021/08/04 21:42:12;;;;;;;8.38;5.30;;;;;;;17.45;60.96;99466.69;10366881;28;20132;-60
2021/08/04 21:47:13;;;;;;;8.57;5.25;;;;;;;17.28;61.73;99470.06;10366687;28;20061;-61
2021/08/04 21:52:15;;;;;;;9.77;4.97;;;;;;;17.24;62.28;99473.16;10366538;28;20132;-60
2021/08/04 21:57:17;;;;;;;9.85;6.07;;;;;;;17.29;62.00;99468.25;10366031;28;20050;-60
2021/08/04 22:02:18;;;;;;;5.78;5.18;;;;;;;17.26;62.17;99464.09;10349764;28;20137;-60
2021/08/04 22:07:20;;;;;;;7.65;5.13;;;;;;;17.40;62.22;99458.38;10339367;28;20050;-60
2021/08/04 22:12:22;;;;;;;13.90;5.22;;;;;;;17.57;61.81;99468.16;10365868;28;20054;-60
2021/08/04 22:17:23;;;;;;;10.45;5.13;;;;;;;17.56;61.68;99463.88;10365939;28;20141;-60
2021/08/04 22:22:25;;;;;;;7.88;5.55;;;;;;;17.49;61.81;99464.59;10363869;28;20134;-60
2021/08/04 22:27:28;;;;;;;8.18;5.63;;;;;;;17.42;61.78;99463.53;10364897;28;20563;-60
2021/08/04 22:32:30;;;;;;;8.57;5.40;;;;;;;17.37;61.68;99469.25;10365032;28;20143;-60
2021/08/04 22:37:32;;;;;;;8.18;5.93;;;;;;;17.27;61.97;99460.50;10364012;28;20136;-60
2021/08/04 22:42:33;;;;;;;8.32;4.82;;;;;;;16.94;62.50;99463.66;10364152;28;20417;-60
2021/08/04 22:47:35;;;;;;;6.25;5.65;;;;;;;16.88;62.87;99456.31;10364019;28;20136;-60
2021/08/04 22:52:37;;;;;;;9.73;6.15;;;;;;;16.86;62.70;99452.97;10329428;28;20129;-60
2021/08/04 22:57:39;;;;;;;9.75;5.10;;;;;;;16.77;62.87;99452.00;10361591;28;20064;-61
2021/08/04 23:02:42;;;;;;;7.50;5.88;;;;;;;16.74;63.02;99452.31;10363675;28;20128;-60
2021/08/04 23:07:44;;;;;;;10.02;6.03;;;;;;;16.81;62.98;99449.94;10362405;28;20061;-60
2021/08/04 23:12:47;;;;;;;9.80;5.80;;;;;;;16.77;63.19;99459.13;10362578;28;20050;-60
2021/08/04 23:17:48;;;;;;;7.63;4.88;;;;;;;16.74;63.29;99452.31;10362876;28;20052;-60